Time;durP1;ratioP1;P1;durP2;ratioP2;P2;SDS_P1;SDS_P2;PMS_P1;PMS_P2;Temp;Humidity;BMP_temperature;BMP_pressure;BME280_temperature;BME280_humidity;BME280_pressure;Samples;Min_cycle;Max_cycle;Signal;HPM_P1;HPM_P2
2022/10/05 00:02:23;;;;;;;;;18.00;15.75;;;;;17.75;52.72;101511.16;5040213;28;46186;-50
2022/10/05 00:04:54;;;;;;;;;12.00;10.75;;;;;17.73;52.19;101491.75;5022191;28;45421;-49
2022/10/05 00:07:21;;;;;;;;;12.25;12.00;;;;;17.69;52.24;101491.81;5040192;28;45380;-49
2022/10/05 00:09:56;;;;;;;;;11.50;9.50;;;;;17.69;52.59;101485.66;5040174;28;45250;-51
2022/10/05 00:12:22;;;;;;;;;13.50;13.00;;;;;17.63;52.47;101480.53;5039384;28;46679;-52
2022/10/05 00:14:50;;;;;;;;;9.00;8.25;;;;;17.63;52.39;101488.50;5039784;28;45183;-49
2022/10/05 00:17:24;;;;;;;;;7.75;7.75;;;;;17.62;52.45;101492.06;5040341;28;45329;-51
2022/10/05 00:19:53;;;;;;;;;9.25;8.00;;;;;17.61;52.31;101487.66;5039927;28;45236;-51
2022/10/05 00:22:21;;;;;;;;;11.50;9.00;;;;;17.59;52.45;101484.22;5039679;28;46259;-49
2022/10/05 00:24:50;;;;;;;;;10.00;8.25;;;;;17.58;52.44;101479.81;5040025;28;45242;-50
2022/10/05 00:27:20;;;;;;;;;7.75;7.75;;;;;17.55;52.61;101481.63;5039780;28;45367;-52
2022/10/05 00:29:47;;;;;;;;;10.75;7.75;;;;;17.53;52.63;101485.25;5058201;28;45343;-51
2022/10/05 00:32:12;;;;;;;;;8.00;8.00;;;;;17.50;52.50;101467.63;5028647;28;45489;-52
2022/10/05 00:34:38;;;;;;;;;10.00;9.75;;;;;17.48;52.74;101479.22;5039725;28;45326;-50
2022/10/05 00:37:04;;;;;;;;;10.75;9.25;;;;;17.46;52.65;101468.66;5053588;28;45284;-50
2022/10/05 00:39:31;;;;;;;;;7.75;7.75;;;;;17.39;52.38;101461.78;5039895;28;45242;-52
2022/10/05 00:42:28;;;;;;;;;7.50;6.00;;;;;17.40;52.70;101468.84;5021611;28;45369;-52
2022/10/05 00:45:14;;;;;;;;;8.75;6.25;;;;;17.34;52.75;101463.72;5028676;28;45309;-52
2022/10/05 00:48:22;;;;;;;;;8.25;7.00;;;;;17.33;52.66;101467.28;5039877;28;45314;-51
2022/10/05 00:50:50;;;;;;;;;8.25;7.00;;;;;17.30;52.75;101472.72;5012203;28;45279;-51
2022/10/05 00:53:47;;;;;;;;;7.00;7.00;;;;;17.26;52.87;101466.63;5039198;28;46050;-51
2022/10/05 00:56:19;;;;;;;;;10.25;8.25;;;;;17.23;53.01;101466.69;4998345;28;45424;-49
2022/10/05 00:59:06;;;;;;;;;7.25;7.25;;;;;17.20;52.79;101470.31;5039431;28;45249;-52
2022/10/05 01:01:56;;;;;;;;;7.75;7.50;;;;;17.17;52.98;101467.75;5039396;28;45320;-50
2022/10/05 01:04:49;;;;;;;;;10.00;8.25;;;;;17.14;53.00;101461.66;5039421;28;46135;-52
2022/10/05 01:07:26;;;;;;;;;7.00;7.00;;;;;17.10;52.79;101460.03;5039320;28;45309;-49
2022/10/05 01:10:17;;;;;;;;;7.50;5.75;;;;;17.08;52.79;101465.41;5069977;28;45306;-51
2022/10/05 01:13:00;;;;;;;;;12.50;8.75;;;;;17.04;52.74;101458.41;5045010;28;45387;-52
2022/10/05 01:15:31;;;;;;;;;10.75;8.00;;;;;17.03;52.62;101470.84;5039148;28;46128;-50
2022/10/05 01:18:06;;;;;;;;;8.75;8.00;;;;;17.01;52.80;101466.50;5039273;28;45250;-51
2022/10/05 01:20:56;;;;;;;;;6.00;6.00;;;;;16.98;52.83;101462.13;5063493;28;45237;-52
2022/10/05 01:24:00;;;;;;;;;6.00;6.00;;;;;16.96;52.97;101469.25;5039257;28;45391;-50
2022/10/05 01:26:47;;;;;;;;;7.00;5.00;;;;;16.95;52.74;101466.66;5042225;28;45281;-51
2022/10/05 01:29:39;;;;;;;;;7.50;5.75;;;;;16.92;53.03;101470.28;5056443;28;45403;-51
2022/10/05 01:32:24;;;;;;;;;6.25;6.25;;;;;16.89;52.91;101465.91;5050908;28;45221;-51
2022/10/05 01:35:18;;;;;;;;;7.50;7.25;;;;;16.86;52.88;101458.00;5042377;28;45519;-51
2022/10/05 01:37:49;;;;;;;;;8.25;8.25;;;;;16.85;53.11;101468.69;5042147;28;46113;-52
2022/10/05 01:40:41;;;;;;;;;9.75;7.75;;;;;16.82;53.38;101456.38;5042329;28;45352;-50
2022/10/05 01:43:16;;;;;;;;;9.25;9.00;;;;;16.80;52.90;101466.16;5042668;28;45439;-52
2022/10/05 01:46:17;;;;;;;;;7.50;6.25;;;;;16.79;53.02;101458.22;5041687;28;45405;-51
2022/10/05 01:48:53;;;;;;;;;7.50;7.00;;;;;16.77;53.16;101460.09;5000063;28;45493;-49
2022/10/05 01:51:43;;;;;;;;;10.00;8.00;;;;;16.77;53.31;101473.34;5042199;28;45234;-53
2022/10/05 01:54:35;;;;;;;;;12.75;7.00;;;;;16.76;53.05;101455.69;5042576;28;45495;-50
2022/10/05 01:57:00;;;;;;;;;9.00;7.75;;;;;16.76;52.96;101459.19;5004397;28;45218;-51
2022/10/05 01:59:56;;;;;;;;;10.25;8.75;;;;;16.75;53.35;101454.78;5042053;28;46219;-52
2022/10/05 02:02:24;;;;;;;;;11.00;11.00;;;;;16.72;53.08;101453.09;5042372;28;45396;-51
2022/10/05 02:05:02;;;;;;;;;11.25;10.50;;;;;16.73;53.46;101452.19;5024526;28;45403;-50
2022/10/05 02:07:42;;;;;;;;;9.00;8.25;;;;;16.73;53.44;101451.34;5042009;28;45250;-50
2022/10/05 02:10:14;;;;;;;;;12.00;10.50;;;;;16.71;53.17;101445.19;5024271;28;46557;-49
2022/10/05 02:12:41;;;;;;;;;10.25;9.75;;;;;16.70;53.28;101452.28;5055271;28;45311;-48
2022/10/05 02:15:13;;;;;;;;;12.75;10.50;;;;;16.68;53.21;101442.63;5042064;28;45355;-49
2022/10/05 02:17:45;;;;;;;;;10.00;8.75;;;;;16.70;53.24;101446.09;5041845;28;45535;-51
2022/10/05 02:20:18;;;;;;;;;9.00;8.00;;;;;16.66;53.41;101432.03;5041777;28;45519;-51
2022/10/05 02:22:48;;;;;;;;;12.25;8.25;;;;;16.70;53.53;101432.81;5041576;28;45423;-49
2022/10/05 02:25:16;;;;;;;;;10.00;8.50;;;;;16.67;53.40;101436.44;5041916;28;45238;-51
2022/10/05 02:27:51;;;;;;;;;10.50;8.75;;;;;16.67;53.39;101438.25;5042661;28;45380;-52
2022/10/05 02:30:18;;;;;;;;;11.75;10.75;;;;;16.67;53.33;101438.25;5061791;28;45455;-51
2022/10/05 02:32:54;;;;;;;;;7.75;7.75;;;;;16.66;53.36;101433.84;5043992;28;45265;-49
2022/10/05 02:35:20;;;;;;;;;10.75;9.75;;;;;16.65;53.40;101425.00;5042002;28;45337;-51
2022/10/05 02:38:33;;;;;;;;;7.00;7.00;;;;;16.64;53.68;101422.38;5054694;28;45456;-50
2022/10/05 02:41:18;;;;;;;;;11.00;10.00;;;;;16.62;53.59;101414.47;4995558;28;46118;-49
2022/10/05 02:43:49;;;;;;;;;7.25;7.25;;;;;16.62;53.40;101416.28;5070164;28;45446;-51
2022/10/05 02:46:21;;;;;;;;;9.25;9.25;;;;;16.58;53.68;101411.03;5052627;28;45262;-52
2022/10/05 02:48:53;;;;;;;;;6.75;6.75;;;;;16.58;53.59;101413.69;5048039;28;45324;-49
2022/10/05 02:51:41;;;;;;;;;10.25;7.50;;;;;16.57;53.81;101411.94;5070441;28;46317;-47
2022/10/05 02:54:48;;;;;;;;;9.00;8.00;;;;;16.55;53.66;101404.94;5038219;28;45140;-52
2022/10/05 02:57:30;;;;;;;;;7.00;6.75;;;;;16.53;53.53;101401.50;4960255;28;45589;-51
2022/10/05 03:00:03;;;;;;;;;6.25;6.25;;;;;16.51;53.36;101396.22;5033323;28;45455;-51
2022/10/05 03:02:39;;;;;;;;;7.50;7.25;;;;;16.49;53.63;101400.72;5040401;28;46380;-52
2022/10/05 03:05:17;;;;;;;;;7.25;6.00;;;;;16.47;53.52;101394.56;5050031;28;45337;-50
2022/10/05 03:08:07;;;;;;;;;6.75;6.75;;;;;16.46;53.57;101403.44;5050298;28;45518;-51
2022/10/05 03:10:44;;;;;;;;;7.75;7.75;;;;;16.44;53.77;101407.03;5041103;28;45391;-51
2022/10/05 03:13:27;;;;;;;;;10.25;7.75;;;;;16.42;53.78;101402.63;5040785;28;46906;-51
2022/10/05 03:16:25;;;;;;;;;4.75;4.75;;;;;16.41;53.62;101403.59;5068394;28;45351;-51
2022/10/05 03:19:05;;;;;;;;;9.00;6.50;;;;;16.39;53.72;101409.84;5039708;28;45361;-49
2022/10/05 03:21:57;;;;;;;;;8.25;8.25;;;;;16.37;53.81;101401.06;5040526;28;45352;-48
2022/10/05 03:24:35;;;;;;;;;10.00;8.25;;;;;16.35;53.81;101393.13;5040700;28;47190;-49
2022/10/05 03:27:13;;;;;;;;;7.75;7.75;;;;;16.32;53.87;101395.00;5040790;28;45260;-49
2022/10/05 03:29:53;;;;;;;;;7.25;7.00;;;;;16.28;53.76;101394.22;5058260;28;45522;-50
2022/10/05 03:32:50;;;;;;;;;6.75;6.00;;;;;16.26;54.17;101393.38;5050481;28;45373;-51
2022/10/05 03:35:44;;;;;;;;;9.50;8.50;;;;;16.24;53.93;101385.47;5049712;28;46218;-50
2022/10/05 03:38:35;;;;;;;;;5.25;5.25;;;;;16.22;53.70;101384.63;5041327;28;45234;-51
2022/10/05 03:41:11;;;;;;;;;8.00;4.75;;;;;16.17;54.04;101386.53;5041804;28;45327;-52
2022/10/05 03:43:57;;;;;;;;;20.25;19.25;;;;;16.17;53.95;101377.72;5040405;28;45263;-51
2022/10/05 03:46:29;;;;;;;;;7.00;7.00;;;;;16.14;54.37;101376.03;5040502;28;45384;-52
2022/10/05 03:49:12;;;;;;;;;10.25;8.25;;;;;16.12;54.11;101369.91;5038560;28;45455;-49
2022/10/05 03:51:44;;;;;;;;;6.00;6.00;;;;;16.12;54.31;101361.94;5040414;28;45333;-52
2022/10/05 03:54:27;;;;;;;;;7.75;6.50;;;;;16.11;54.21;101368.16;5040525;28;45273;-51
2022/10/05 03:57:05;;;;;;;;;6.00;6.00;;;;;16.08;54.01;101368.25;5040296;28;46382;-51
2022/10/05 03:59:45;;;;;;;;;7.75;6.00;;;;;16.06;54.38;101367.41;5063829;28;45185;-50
2022/10/05 04:02:25;;;;;;;;;7.25;7.00;;;;;16.01;54.37;101366.66;5040573;28;45415;-51
2022/10/05 04:05:11;;;;;;;;;8.00;5.00;;;;;16.03;54.18;101371.00;5040186;28;45246;-51
2022/10/05 04:07:45;;;;;;;;;14.50;13.25;;;;;16.03;54.15;101370.16;5040113;28;45519;-52
2022/10/05 04:10:22;;;;;;;;;9.25;9.25;;;;;16.00;54.12;101363.16;5040169;28;45341;-48
2022/10/05 04:12:57;;;;;;;;;8.00;7.25;;;;;15.98;54.39;101367.63;5039991;28;45331;-49
2022/10/05 04:15:28;;;;;;;;;7.00;7.00;;;;;15.96;54.05;101371.22;5040130;28;45321;-51
2022/10/05 04:18:02;;;;;;;;;8.75;7.25;;;;;15.95;54.14;101370.38;5039933;28;45994;-49
2022/10/05 04:20:45;;;;;;;;;5.25;5.25;;;;;15.92;54.57;101366.03;5040181;28;45430;-52
2022/10/05 04:23:45;;;;;;;;;6.00;6.00;;;;;15.89;54.57;101368.72;5040137;28;45323;-50
2022/10/05 04:26:17;;;;;;;;;9.00;7.75;;;;;15.85;54.35;101368.88;5050569;28;45563;-51
2022/10/05 04:28:59;;;;;;;;;8.75;8.50;;;;;15.84;54.59;101365.34;5065731;28;45243;-47
2022/10/05 04:31:55;;;;;;;;;9.50;8.25;;;;;15.79;54.58;101361.91;5028841;28;45399;-51
2022/10/05 04:34:21;;;;;;;;;7.50;7.50;;;;;15.78;54.45;101360.16;5055711;28;45348;-51
2022/10/05 04:36:57;;;;;;;;;9.50;8.50;;;;;15.75;54.60;101360.25;5050120;28;45349;-50
2022/10/05 04:39:35;;;;;;;;;10.00;8.75;;;;;15.73;54.80;101359.41;5040622;28;45239;-50
2022/10/05 04:42:25;;;;;;;;;9.00;9.00;;;;;15.70;54.49;101360.38;5039481;28;45288;-52
2022/10/05 04:45:14;;;;;;;;;8.75;8.00;;;;;15.69;54.68;101355.97;5047769;28;45627;-49
2022/10/05 04:47:45;;;;;;;;;8.25;7.25;;;;;15.66;54.35;101355.19;5018387;28;45262;-50
2022/10/05 04:50:22;;;;;;;;;8.25;8.25;;;;;15.63;54.70;101352.63;5042583;28;46167;-52
2022/10/05 04:53:00;;;;;;;;;11.50;10.00;;;;;15.60;54.48;101351.78;5068359;28;45384;-49
2022/10/05 04:55:37;;;;;;;;;7.75;6.25;;;;;15.58;54.74;101348.31;5054888;28;45356;-51
2022/10/05 04:58:13;;;;;;;;;8.25;8.25;;;;;15.55;54.51;101361.63;5045910;28;45558;-52
2022/10/05 05:00:48;;;;;;;;;10.75;9.75;;;;;15.52;54.89;101345.81;5075102;28;45318;-51
2022/10/05 05:03:35;;;;;;;;;10.25;9.75;;;;;15.50;54.94;101355.56;5046806;28;45251;-49
2022/10/05 05:06:26;;;;;;;;;8.00;7.00;;;;;15.43;54.71;101341.63;5025201;28;45485;-51
2022/10/05 05:09:21;;;;;;;;;7.50;7.50;;;;;15.44;54.80;101342.47;5043016;28;45227;-52
2022/10/05 05:11:52;;;;;;;;;10.75;9.75;;;;;15.42;54.64;101341.63;5043223;28;45422;-51
2022/10/05 05:14:31;;;;;;;;;9.25;8.50;;;;;15.39;54.51;101337.28;5042609;28;45302;-51
2022/10/05 05:17:26;;;;;;;;;9.50;8.00;;;;;15.36;54.75;101329.44;5043081;28;45552;-51
2022/10/05 05:20:23;;;;;;;;;11.00;10.00;;;;;15.33;54.65;101333.94;5024202;28;45415;-51
2022/10/05 05:23:38;;;;;;;;;9.75;9.75;;;;;15.30;54.87;101337.53;5042336;28;46412;-47
2022/10/05 05:26:12;;;;;;;;;10.25;9.50;;;;;15.28;54.84;101328.75;5035899;28;45542;-51
2022/10/05 05:29:04;;;;;;;;;7.75;7.75;;;;;15.25;54.61;101327.03;5051640;28;45264;-51
2022/10/05 05:31:48;;;;;;;;;8.50;7.50;;;;;15.23;54.82;101320.94;5042679;28;45251;-50
2022/10/05 05:34:37;;;;;;;;;8.50;8.50;;;;;15.16;54.97;101316.69;5042481;28;46401;-49
2022/10/05 05:37:14;;;;;;;;;10.75;10.75;;;;;15.17;54.74;101315.78;5056317;28;45403;-48
2022/10/05 05:40:06;;;;;;;;;8.25;8.25;;;;;15.16;54.55;101311.41;5050875;28;45298;-53
2022/10/05 05:42:53;;;;;;;;;9.50;9.50;;;;;15.09;54.72;101323.91;5043974;28;45349;-54
2022/10/05 05:45:27;;;;;;;;;8.00;8.00;;;;;15.08;54.86;101322.16;5042462;28;45464;-52
2022/10/05 05:47:56;;;;;;;;;10.00;9.00;;;;;15.05;55.12;101318.72;5042376;28;45395;-51
2022/10/05 05:50:40;;;;;;;;;8.75;8.75;;;;;15.02;55.04;101317.03;5072122;28;45178;-54
2022/10/05 05:53:05;;;;;;;;;8.75;7.50;;;;;15.00;55.28;101313.53;5040870;28;45605;-53
2022/10/05 05:55:44;;;;;;;;;9.75;8.25;;;;;14.98;54.82;101314.47;5055284;28;46062;-52
2022/10/05 05:58:15;;;;;;;;;8.50;8.50;;;;;14.95;55.24;101315.41;5041928;28;45240;-50
2022/10/05 06:01:01;;;;;;;;;9.75;8.50;;;;;14.89;55.43;101312.91;5042280;28;45354;-63
2022/10/05 06:03:32;;;;;;;;;8.25;8.00;;;;;14.86;55.27;101313.00;5042064;28;45262;-63
2022/10/05 06:06:03;;;;;;;;;9.00;8.25;;;;;14.87;55.26;101314.75;5041931;28;46345;-63
2022/10/05 06:08:40;;;;;;;;;10.25;8.25;;;;;14.84;55.01;101318.34;5041807;28;46186;-63
2022/10/05 06:11:15;;;;;;;;;8.25;7.50;;;;;14.78;55.42;101308.75;5041225;28;45261;-62
2022/10/05 06:13:42;;;;;;;;;11.25;11.25;;;;;14.81;54.97;101317.53;5042023;28;45257;-64
2022/10/05 06:16:12;;;;;;;;;12.25;12.25;;;;;14.78;55.53;101316.69;5041138;28;45365;-56
2022/10/05 06:18:42;;;;;;;;;11.00;10.00;;;;;14.79;55.23;101314.88;5040966;28;45237;-56
2022/10/05 06:21:55;;;;;;;;;9.75;8.00;;;;;14.77;55.59;101314.94;5072304;28;45383;-53
2022/10/05 06:24:27;;;;;;;;;11.75;11.00;;;;;14.74;55.29;101315.00;5028147;28;45920;-53
2022/10/05 06:27:24;;;;;;;;;10.50;10.50;;;;;14.72;55.30;101313.31;5040319;28;47974;-52
2022/10/05 06:30:06;;;;;;;;;12.00;10.25;;;;;14.69;55.27;101305.44;5060774;28;45478;-54
2022/10/05 06:32:55;;;;;;;;;10.25;8.00;;;;;14.69;55.61;101308.06;5051516;28;45522;-52
2022/10/05 06:35:42;;;;;;;;;11.00;10.25;;;;;14.68;55.47;101306.31;5063884;28;45551;-55
2022/10/05 06:38:31;;;;;;;;;12.50;10.00;;;;;14.67;55.84;101309.91;5050495;28;46169;-58
2022/10/05 06:41:33;;;;;;;;;10.00;10.00;;;;;14.66;55.64;101313.44;5042263;28;45368;-57
2022/10/05 06:44:11;;;;;;;;;13.00;11.75;;;;;14.64;55.45;101308.16;5040486;28;45437;-58
2022/10/05 06:46:51;;;;;;;;;10.50;10.50;;;;;14.65;55.84;101309.06;5041108;28;45365;-58
2022/10/05 06:49:25;;;;;;;;;11.50;11.50;;;;;14.65;55.95;101306.41;5056144;28;46435;-58
2022/10/05 06:52:23;;;;;;;;;12.25;11.75;;;;;14.66;55.61;101310.81;5063506;28;45380;-58
2022/10/05 06:54:57;;;;;;;;;12.25;11.75;;;;;14.66;55.94;101313.44;5068379;28;45350;-58
2022/10/05 06:57:59;;;;;;;;;12.50;11.00;;;;;14.65;56.20;101311.69;5030819;28;45329;-57
2022/10/05 07:00:47;;;;;;;;;13.00;12.00;;;;;14.65;56.19;101309.91;5041533;28;45428;-58
2022/10/05 07:03:28;;;;;;;;;15.75;12.50;;;;;14.63;56.05;101298.47;5022534;28;45325;-56
2022/10/05 07:06:07;;;;;;;;;16.00;14.25;;;;;14.68;56.05;101308.97;5041378;28;45323;-57
2022/10/05 07:08:46;;;;;;;;;16.00;14.75;;;;;14.68;56.31;101303.69;5040779;28;45357;-56
2022/10/05 07:11:23;;;;;;;;;15.50;13.00;;;;;14.69;56.12;101311.59;5040756;28;45431;-57
2022/10/05 07:14:07;;;;;;;;;13.25;13.25;;;;;14.70;56.44;101309.81;5040926;28;45349;-57
2022/10/05 07:16:35;;;;;;;;;12.25;11.75;;;;;14.71;56.28;101304.47;5040888;28;45234;-56
2022/10/05 07:19:32;;;;;;;;;13.00;11.25;;;;;14.74;56.36;101311.47;5040851;28;45300;-58
2022/10/05 07:22:16;;;;;;;;;18.75;17.25;;;;;14.76;56.10;101315.84;5038769;28;46565;-57
2022/10/05 07:24:46;;;;;;;;;12.75;12.00;;;;;14.78;56.49;101315.81;5040412;28;45456;-54
2022/10/05 07:27:47;;;;;;;;;16.25;12.75;;;;;14.79;56.75;101318.41;5040717;28;45303;-58
2022/10/05 07:30:14;;;;;;;;;11.25;11.00;;;;;14.76;56.64;101317.63;5010114;28;45485;-61
2022/10/05 07:32:53;;;;;;;;;13.00;12.25;;;;;14.83;56.89;101326.28;5053792;28;46162;-59
2022/10/05 07:38:29;;;;;;;;;11.25;11.00;;;;;14.88;56.65;101334.97;5040390;28;45234;-60
2022/10/05 07:41:03;;;;;;;;;14.50;14.50;;;;;14.86;57.14;101321.78;5045575;28;45294;-61
2022/10/05 07:43:47;;;;;;;;;14.75;13.75;;;;;14.93;56.61;101325.16;5047483;28;46131;-61
2022/10/05 07:46:23;;;;;;;;;12.00;12.00;;;;;14.99;56.80;101334.75;5041758;28;45321;-60
2022/10/05 07:49:07;;;;;;;;;10.75;10.25;;;;;15.07;57.15;101336.31;5040505;28;45519;-59
2022/10/05 07:51:36;;;;;;;;;14.50;12.00;;;;;15.13;57.40;101332.63;5021632;28;45503;-58
2022/10/05 07:54:35;;;;;;;;;9.50;9.50;;;;;15.18;57.40;101343.13;5039412;28;45425;-60
2022/10/05 07:57:29;;;;;;;;;10.75;10.75;;;;;15.23;57.25;101342.13;5040299;28;45339;-60
2022/10/05 08:00:00;;;;;;;;;12.25;12.25;;;;;15.30;56.94;101341.97;5040001;28;45317;-59
2022/10/05 08:02:34;;;;;;;;;15.75;14.75;;;;;15.30;57.27;101350.78;5040287;28;45467;-60
2022/10/05 08:05:10;;;;;;;;;15.00;15.00;;;;;15.42;57.11;101352.22;5052245;28;45420;-60
2022/10/05 08:07:36;;;;;;;;;15.25;13.00;;;;;15.46;57.03;101350.38;5040133;28;45330;-60
2022/10/05 08:10:12;;;;;;;;;15.50;13.50;;;;;15.50;57.27;101346.78;5040290;28;45356;-59
2022/10/05 08:13:05;;;;;;;;;11.50;10.25;;;;;15.52;57.78;101351.13;5040106;28;45225;-60
2022/10/05 08:15:52;;;;;;;;;12.50;11.25;;;;;15.63;57.58;101347.31;5040351;28;46365;-59
2022/10/05 08:18:36;;;;;;;;;13.75;11.25;;;;;15.70;57.67;101355.06;5039835;28;45282;-59
2022/10/05 08:21:05;;;;;;;;;12.75;11.25;;;;;15.78;57.15;101338.97;5040161;28;45305;-60
2022/10/05 08:23:37;;;;;;;;;11.25;10.25;;;;;15.85;57.69;101342.38;5040076;28;45410;-60
2022/10/05 08:26:24;;;;;;;;;11.00;9.25;;;;;15.90;57.50;101354.56;5039959;28;45924;-59
2022/10/05 08:29:02;;;;;;;;;10.75;10.75;;;;;15.99;57.64;101350.81;5050422;28;45174;-59
2022/10/05 08:31:33;;;;;;;;;10.50;10.00;;;;;16.05;57.24;101342.69;5060315;28;45288;-59
2022/10/05 08:34:08;;;;;;;;;12.00;11.00;;;;;16.12;57.65;101351.34;5053437;28;45256;-59
2022/10/05 08:36:39;;;;;;;;;11.50;10.75;;;;;16.19;57.44;101355.56;5039491;28;45575;-60
2022/10/05 08:39:19;;;;;;;;;6.75;6.00;;;;;16.27;57.70;101360.66;5039832;28;45296;-59
2022/10/05 08:42:14;;;;;;;;;8.75;7.00;;;;;16.37;57.72;101363.91;5039854;28;45166;-59
2022/10/05 08:45:04;;;;;;;;;11.50;9.75;;;;;16.45;57.28;101359.25;5048802;28;45297;-59
2022/10/05 08:48:03;;;;;;;;;12.25;12.00;;;;;16.55;57.81;101370.47;5059785;28;45385;-59
2022/10/05 08:50:53;;;;;;;;;7.75;7.75;;;;;16.67;57.23;101361.28;5059924;28;45246;-59
2022/10/05 08:53:25;;;;;;;;;8.25;7.25;;;;;16.72;57.70;101373.50;5059962;28;45486;-59
2022/10/05 08:56:08;;;;;;;;;6.00;6.00;;;;;16.81;57.43;101347.59;5059928;28;45204;-59
2022/10/05 08:58:52;;;;;;;;;5.50;5.50;;;;;16.93;57.79;101351.69;5059424;28;45288;-59
2022/10/05 09:01:40;;;;;;;;;9.00;7.75;;;;;16.99;57.37;101356.81;5059858;28;46187;-61
2022/10/05 09:04:15;;;;;;;;;7.75;6.00;;;;;17.09;57.41;101360.03;5059926;28;45260;-59
2022/10/05 09:06:55;;;;;;;;;7.50;7.50;;;;;17.16;57.40;101362.44;5059474;28;45470;-59
2022/10/05 09:10:02;;;;;;;;;8.25;7.25;;;;;17.26;57.17;101364.78;5059627;28;45489;-59
2022/10/05 09:12:33;;;;;;;;;9.00;6.00;;;;;17.34;57.37;101370.75;5021505;28;45392;-59
2022/10/05 09:15:17;;;;;;;;;7.75;5.00;;;;;17.40;57.25;101362.56;5059539;28;45405;-59
2022/10/05 09:18:01;;;;;;;;;6.00;6.00;;;;;17.45;57.34;101357.97;5041433;28;45614;-59
2022/10/05 09:20:46;;;;;;;;;6.25;4.75;;;;;17.52;57.30;101351.53;5059392;28;45178;-59
2022/10/05 09:23:43;;;;;;;;;7.75;7.75;;;;;17.58;57.47;101361.09;5059247;28;45249;-59
2022/10/05 09:26:39;;;;;;;;;6.75;6.25;;;;;17.64;57.18;101362.69;5059474;28;45384;-59
2022/10/05 09:29:22;;;;;;;;;11.25;9.25;;;;;17.71;57.37;101361.56;5057749;28;45424;-59
2022/10/05 09:32:30;;;;;;;;;5.50;5.50;;;;;17.78;57.19;101372.84;5059278;28;46412;-59
2022/10/05 09:35:05;;;;;;;;;9.75;7.00;;;;;17.84;56.98;101375.28;5059122;28;45383;-59
2022/10/05 09:37:48;;;;;;;;;7.25;6.50;;;;;17.89;57.43;101375.13;5059082;28;45305;-59
2022/10/05 09:40:40;;;;;;;;;7.50;7.25;;;;;17.93;57.27;101376.75;5058940;28;45490;-59
2022/10/05 09:43:17;;;;;;;;;7.00;6.75;;;;;17.98;56.93;101381.00;5059156;28;46069;-59
2022/10/05 09:46:04;;;;;;;;;8.75;6.75;;;;;18.03;57.00;101376.41;5059517;28;45457;-59
2022/10/05 09:48:50;;;;;;;;;5.75;5.75;;;;;18.04;57.54;101369.31;5062758;28;45343;-59
2022/10/05 09:51:35;;;;;;;;;8.50;8.25;;;;;18.09;56.95;101380.66;5062484;28;45387;-59
2022/10/05 09:54:18;;;;;;;;;7.25;6.25;;;;;18.15;57.08;101372.44;5062339;28;45975;-59
2022/10/05 09:56:56;;;;;;;;;5.00;5.00;;;;;18.16;56.92;101368.88;5062519;28;45307;-59
2022/10/05 09:59:41;;;;;;;;;6.75;6.50;;;;;18.19;56.97;101366.09;5062568;28;45383;-58
2022/10/05 10:02:12;;;;;;;;;7.00;7.00;;;;;18.22;57.09;101361.59;5062440;28;45473;-59
2022/10/05 10:05:18;;;;;;;;;3.00;3.00;;;;;18.18;56.62;101367.00;5062367;28;45435;-60
2022/10/05 10:08:05;;;;;;;;;6.00;6.00;;;;;18.19;56.75;101367.88;5062085;28;45312;-60
2022/10/05 10:10:42;;;;;;;;;7.25;6.00;;;;;18.22;56.42;101351.81;5061822;28;45400;-60
2022/10/05 10:13:33;;;;;;;;;5.25;5.00;;;;;18.27;56.74;101354.31;5062210;28;45327;-59
2022/10/05 10:16:08;;;;;;;;;6.25;5.25;;;;;18.31;56.54;101356.81;5062198;28;45663;-59
2022/10/05 10:19:05;;;;;;;;;7.00;6.75;;;;;18.34;56.24;101345.19;5061975;28;45487;-59
2022/10/05 10:22:03;;;;;;;;;5.25;5.00;;;;;18.37;56.44;101354.84;5062111;28;45418;-58
2022/10/05 10:24:53;;;;;;;;;6.00;4.50;;;;;18.39;56.36;101366.28;5062092;28;46437;-58
2022/10/05 10:27:43;;;;;;;;;3.50;3.50;;;;;18.42;56.02;101352.88;5061872;28;45455;-57
2022/10/05 10:30:33;;;;;;;;;4.00;4.00;;;;;18.45;56.12;101361.63;5049413;28;45383;-57
2022/10/05 10:33:37;;;;;;;;;4.75;4.75;;;;;18.48;56.21;101364.16;5062091;28;45536;-57
2022/10/05 10:36:50;;;;;;;;;6.00;4.25;;;;;18.57;55.88;101352.28;5061536;28;45473;-57
2022/10/05 10:39:21;;;;;;;;;4.50;4.50;;;;;18.60;56.07;101354.84;5061569;28;45534;-56
2022/10/05 10:41:49;;;;;;;;;1.00;1.00;;;;;18.73;55.96;101349.03;5043617;28;45926;-59
2022/10/05 10:44:18;;;;;;;;;3.25;3.25;;;;;18.81;55.73;101339.81;5043667;28;45206;-57
2022/10/05 10:47:20;;;;;;;;;5.00;5.00;;;;;18.89;55.31;101343.97;5061773;28;45376;-59
2022/10/05 10:50:23;;;;;;;;;5.50;2.50;;;;;18.93;55.41;101350.94;5061625;28;45272;-59
2022/10/05 10:53:19;;;;;;;;;4.00;4.00;;;;;19.06;55.64;101349.53;5061445;28;45348;-59
2022/10/05 10:56:21;;;;;;;;;4.50;4.25;;;;;19.16;55.60;101334.06;5061519;28;45233;-60
2022/10/05 10:59:22;;;;;;;;;5.00;3.25;;;;;19.28;55.01;101335.34;5061189;28;45677;-59
2022/10/05 11:02:19;;;;;;;;;4.25;4.25;;;;;19.42;55.17;101330.31;5061429;28;45478;-57
2022/10/05 11:05:19;;;;;;;;;5.25;5.25;;;;;19.60;54.67;101330.47;5061409;28;45271;-59
2022/10/05 11:08:22;;;;;;;;;7.00;5.25;;;;;19.77;54.34;101343.06;5061458;28;45327;-59
2022/10/05 11:11:02;;;;;;;;;5.25;5.25;;;;;19.87;54.31;101336.41;5061277;28;46178;-59
2022/10/05 11:14:06;;;;;;;;;5.50;5.00;;;;;20.00;54.40;101323.41;5060950;28;45503;-59
2022/10/05 11:16:49;;;;;;;;;7.00;4.00;;;;;20.09;53.82;101328.34;5035219;28;45347;-59
2022/10/05 11:19:42;;;;;;;;;4.75;4.75;;;;;20.19;54.04;101328.78;5061469;28;45243;-59
2022/10/05 11:22:16;;;;;;;;;4.75;3.00;;;;;20.25;53.45;101319.63;5042813;28;45198;-57
2022/10/05 11:25:14;;;;;;;;;4.00;4.00;;;;;20.36;54.08;101305.81;5043121;28;47223;-59
2022/10/05 11:27:47;;;;;;;;;5.00;2.00;;;;;20.48;54.15;101304.34;5059671;28;45249;-59
2022/10/05 11:30:41;;;;;;;;;4.75;4.50;;;;;20.60;54.03;101301.09;5059889;28;45233;-60
2022/10/05 11:33:37;;;;;;;;;7.75;7.00;;;;;20.78;53.82;101316.28;5060967;28;45344;-58
2022/10/05 11:36:30;;;;;;;;;7.00;6.00;;;;;20.96;53.95;101328.84;5060447;28;45252;-58
2022/10/05 11:39:17;;;;;;;;;6.25;5.25;;;;;21.13;53.65;101302.16;5042694;28;45382;-58
2022/10/05 11:42:20;;;;;;;;;7.00;6.25;;;;;21.27;53.97;101304.13;5060911;28;45309;-58
2022/10/05 11:44:56;;;;;;;;;4.75;4.25;;;;;21.43;53.76;101294.41;5060151;28;45531;-57
2022/10/05 11:47:27;;;;;;;;;5.50;5.50;;;;;21.54;53.69;101285.81;5060135;28;46201;-57
2022/10/05 11:50:14;;;;;;;;;5.00;5.00;;;;;21.72;53.44;101285.81;5060148;28;45500;-58
2022/10/05 11:52:50;;;;;;;;;5.00;5.00;;;;;21.89;53.77;101283.13;5060441;28;45490;-57
2022/10/05 11:55:36;;;;;;;;;4.25;3.50;;;;;22.03;53.74;101279.69;5060475;28;45409;-58
2022/10/05 11:58:14;;;;;;;;;4.00;4.00;;;;;22.15;53.11;101270.16;5060420;28;45810;-54
2022/10/05 12:00:48;;;;;;;;;7.00;4.25;;;;;22.38;53.16;101295.69;5042375;28;45837;-56
2022/10/05 12:03:41;;;;;;;;;4.00;4.00;;;;;22.61;52.62;101282.81;5059992;28;45199;-55
2022/10/05 12:06:37;;;;;;;;;3.50;3.50;;;;;22.73;52.51;101282.13;5060016;28;45363;-56
2022/10/05 12:09:21;;;;;;;;;3.50;3.25;;;;;22.83;52.75;101282.47;5059246;28;46375;-57
2022/10/05 12:12:06;;;;;;;;;3.75;3.75;;;;;23.03;52.37;101281.31;5060435;28;45566;-57
2022/10/05 12:14:43;;;;;;;;;3.50;3.50;;;;;23.19;52.29;101283.13;5059834;28;45365;-57
2022/10/05 12:17:36;;;;;;;;;5.00;4.00;;;;;23.32;51.80;101289.50;5059954;28;45697;-56
2022/10/05 12:20:24;;;;;;;;;3.75;2.75;;;;;23.48;52.06;101283.22;5060246;28;45469;-57
2022/10/05 12:23:01;;;;;;;;;3.75;3.00;;;;;23.65;52.13;101263.44;5059975;28;45286;-57
2022/10/05 12:25:30;;;;;;;;;3.25;3.25;;;;;23.85;51.52;101275.63;5060577;28;45559;-56
2022/10/05 12:28:03;;;;;;;;;3.75;3.75;;;;;23.97;51.76;101266.81;5058654;28;45679;-56
2022/10/05 12:31:16;;;;;;;;;4.00;2.75;;;;;24.22;51.53;101261.72;5059960;28;47106;-56
2022/10/05 12:33:51;;;;;;;;;4.75;2.75;;;;;24.41;51.79;101256.88;5057046;28;45320;-57